createdAt,value
2022-11-07T00:00:21.359Z,12.90
2022-11-07T00:05:24.670Z,11.27
2022-11-07T00:10:29.779Z,9.07
2022-11-07T00:15:34.525Z,9.90
2022-11-07T00:20:37.812Z,10.63
2022-11-07T00:25:41.071Z,9.05
2022-11-07T00:30:45.750Z,9.88
2022-11-07T00:35:49.539Z,10.35
2022-11-07T00:40:56.343Z,8.60
2022-11-07T00:46:02.614Z,9.35
2022-11-07T00:51:10.466Z,8.95
2022-11-07T00:56:15.923Z,8.85
2022-11-07T01:01:22.664Z,9.88
2022-11-07T01:06:28.351Z,10.70
2022-11-07T01:11:31.973Z,10.75
2022-11-07T01:16:38.842Z,11.50
2022-11-07T01:21:43.564Z,10.57
2022-11-07T01:26:48.932Z,10.80
2022-11-07T01:31:53.612Z,10.73
2022-11-07T01:36:56.954Z,9.57
2022-11-07T01:42:00.512Z,11.15
2022-11-07T01:47:05.239Z,11.87
2022-11-07T01:52:12.695Z,13.05
2022-11-07T01:57:22.401Z,15.50
2022-11-07T02:02:28.760Z,14.37
2022-11-07T02:07:33.217Z,14.30
2022-11-07T02:12:37.012Z,13.80
2022-11-07T02:17:42.144Z,15.20
2022-11-07T02:22:51.708Z,14.27
2022-11-07T02:27:59.394Z,15.50
2022-11-07T02:33:03.200Z,16.23
2022-11-07T02:38:09.956Z,15.85
2022-11-07T02:43:17.577Z,14.07
2022-11-07T02:48:21.072Z,13.80
2022-11-07T02:53:24.720Z,13.02
2022-11-07T02:58:29.406Z,13.97
2022-11-07T03:03:34.347Z,14.43
2022-11-07T03:08:38.020Z,15.77
2022-11-07T03:13:42.780Z,16.52
2022-11-07T03:18:46.151Z,16.65
2022-11-07T03:23:49.416Z,17.42
2022-11-07T03:28:54.060Z,16.70
2022-11-07T03:33:57.470Z,16.57
2022-11-07T03:39:00.831Z,15.90
2022-11-07T03:44:05.628Z,15.77
2022-11-07T03:49:10.193Z,16.35
2022-11-07T03:54:13.481Z,16.35
2022-11-07T03:59:18.191Z,17.35
2022-11-07T04:04:21.493Z,18.30
2022-11-07T04:09:24.757Z,18.17
2022-11-07T04:14:46.608Z,17.15
2022-11-07T04:19:52.259Z,16.02
2022-11-07T04:24:55.578Z,15.23
2022-11-07T04:30:19.019Z,16.23
2022-11-07T04:35:24.431Z,15.05
2022-11-07T04:40:28.437Z,15.75
2022-11-07T04:45:33.127Z,17.35
2022-11-07T04:50:36.373Z,17.77
2022-11-07T04:55:39.642Z,17.95
2022-11-07T05:00:44.344Z,16.67
2022-11-07T05:05:47.639Z,16.95
2022-11-07T05:10:50.935Z,15.40
2022-11-07T05:15:55.568Z,18.35
2022-11-07T05:20:58.873Z,20.83
2022-11-07T05:26:02.145Z,20.67
2022-11-07T05:31:08.033Z,20.87
2022-11-07T05:36:13.511Z,19.80
2022-11-07T05:41:18.643Z,19.70
2022-11-07T05:46:23.349Z,18.55
2022-11-07T05:51:26.620Z,24.83
2022-11-07T05:56:29.892Z,21.92
2022-11-07T06:01:35.697Z,24.30
2022-11-07T06:06:39.270Z,26.10
2022-11-07T06:11:42.676Z,30.48
2022-11-07T06:16:47.516Z,35.27
2022-11-07T06:21:50.766Z,26.20
2022-11-07T06:26:54.527Z,25.98
2022-11-07T06:31:59.186Z,21.73
2022-11-07T06:37:03.503Z,32.33
2022-11-07T06:42:07.139Z,33.93
2022-11-07T06:47:11.877Z,29.25
2022-11-07T06:52:15.240Z,25.83
2022-11-07T06:57:18.616Z,19.10
2022-11-07T07:02:44.409Z,17.98
2022-11-07T07:07:46.751Z,18.25
2022-11-07T07:12:50.172Z,18.30
2022-11-07T07:17:54.828Z,17.00
2022-11-07T07:23:04.404Z,16.38
2022-11-07T07:28:08.908Z,15.67
2022-11-07T07:33:14.007Z,12.77
2022-11-07T07:38:17.590Z,13.40
2022-11-07T07:43:20.899Z,7.07
2022-11-07T07:48:25.559Z,6.93
2022-11-07T07:53:28.885Z,7.63
2022-11-07T07:58:32.290Z,7.70
2022-11-07T08:03:59.793Z,7.85
2022-11-07T08:09:00.517Z,7.80
2022-11-07T08:14:03.818Z,6.03
2022-11-07T08:19:08.689Z,5.30
2022-11-07T08:24:12.152Z,5.70
2022-11-07T08:29:15.691Z,5.10
2022-11-07T08:34:20.362Z,4.60
2022-11-07T08:39:23.620Z,5.20
2022-11-07T08:44:27.060Z,5.00
2022-11-07T08:49:31.877Z,5.35
2022-11-07T08:54:35.103Z,5.47
2022-11-07T08:59:38.434Z,5.40
2022-11-07T09:04:43.153Z,5.15
2022-11-07T09:09:46.643Z,5.33
2022-11-07T09:14:49.917Z,5.33
2022-11-07T09:19:54.598Z,5.43
2022-11-07T09:24:58.167Z,6.15
2022-11-07T09:30:01.467Z,5.90
2022-11-07T09:35:07.648Z,5.78
2022-11-07T09:40:24.221Z,5.03
2022-11-07T09:45:30.130Z,4.95
2022-11-07T09:50:39.936Z,4.40
2022-11-07T09:55:50.331Z,5.88
2022-11-07T10:00:55.813Z,5.07
2022-11-07T10:06:14.463Z,4.65
2022-11-07T10:11:30.428Z,5.40
2022-11-07T10:16:43.628Z,5.68
2022-11-07T10:21:58.329Z,4.47
2022-11-07T10:27:03.171Z,4.23
2022-11-07T10:32:19.196Z,3.47
2022-11-07T10:37:23.911Z,3.10
2022-11-07T10:42:32.031Z,2.92
2022-11-07T10:47:35.298Z,2.08
2022-11-07T10:52:43.015Z,2.88
2022-11-07T10:57:50.899Z,2.88
2022-11-07T11:02:56.271Z,2.30
2022-11-07T11:08:14.734Z,2.42
2022-11-07T11:13:28.566Z,2.15
2022-11-07T11:18:31.876Z,1.35
2022-11-07T11:23:42.492Z,2.08
2022-11-07T11:28:48.957Z,1.40
2022-11-07T11:33:59.072Z,1.20
2022-11-07T11:39:06.599Z,1.27
2022-11-07T11:44:19.191Z,1.00
2022-11-07T11:49:29.615Z,1.23
2022-11-07T11:54:35.590Z,0.90
2022-11-07T12:00:12.054Z,0.80
2022-11-07T12:05:30.297Z,1.00
2022-11-07T12:10:42.343Z,1.00
2022-11-07T12:16:07.079Z,1.00
2022-11-07T12:21:24.655Z,1.33
2022-11-07T12:26:35.522Z,1.42
2022-11-07T12:31:54.685Z,1.23
2022-11-07T12:37:13.967Z,1.57
2022-11-07T12:42:27.928Z,2.60
2022-11-07T12:48:04.021Z,1.27
2022-11-07T12:53:17.892Z,1.50
2022-11-07T12:58:26.371Z,1.45
2022-11-07T13:03:51.140Z,1.17
2022-11-07T13:24:40.207Z,0.90
2022-11-07T13:29:45.485Z,0.90
2022-11-07T13:34:57.854Z,1.10
2022-11-07T13:40:06.075Z,1.02
2022-11-07T13:45:22.662Z,0.82
2022-11-07T13:50:40.027Z,1.20
2022-11-07T13:55:47.175Z,0.93
2022-11-07T14:00:52.071Z,0.93
2022-11-07T14:05:56.472Z,1.50
2022-11-07T14:11:00.620Z,1.10
2022-11-07T14:16:09.146Z,1.30
2022-11-07T14:31:30.743Z,1.10
2022-11-07T14:36:35.467Z,1.02
2022-11-07T14:41:42.854Z,1.30
2022-11-07T14:46:48.484Z,1.40
2022-11-07T14:51:52.512Z,1.30
2022-11-07T14:56:58.766Z,3.22
2022-11-07T15:02:07.441Z,4.75
2022-11-07T15:07:12.686Z,8.20
2022-11-07T15:12:19.721Z,8.48
2022-11-07T15:17:27.498Z,5.60
2022-11-07T15:22:36.268Z,7.28
2022-11-07T15:27:40.375Z,7.10
2022-11-07T15:32:45.206Z,6.03
2022-11-07T15:37:57.014Z,4.10
2022-11-07T15:43:00.300Z,4.05
2022-11-07T15:48:06.717Z,14.52
2022-11-07T15:53:16.749Z,11.55
2022-11-07T15:58:22.266Z,12.50
2022-11-07T16:03:28.117Z,11.77
2022-11-07T16:08:32.097Z,8.00
2022-11-07T16:13:35.364Z,11.35
2022-11-07T16:18:43.758Z,13.70
2022-11-07T16:23:49.667Z,9.85
2022-11-07T16:28:53.020Z,6.97
2022-11-07T16:33:57.644Z,3.60
2022-11-07T16:39:02.169Z,3.47
2022-11-07T16:44:05.539Z,3.70
2022-11-07T16:49:16.637Z,3.53
2022-11-07T16:54:22.964Z,4.07
2022-11-07T16:59:26.264Z,4.80
2022-11-07T17:04:30.919Z,7.77
2022-11-07T17:19:41.664Z,9.50
2022-11-07T17:35:17.827Z,6.37
2022-11-07T17:40:22.826Z,9.23
2022-11-07T17:45:27.416Z,7.30
2022-11-07T18:00:38.256Z,7.50
2022-11-07T18:05:43.189Z,5.10
2022-11-07T18:10:46.451Z,5.40
2022-11-07T18:15:50.043Z,5.00
2022-11-07T18:20:54.888Z,4.40
2022-11-07T18:26:06.030Z,5.13
2022-11-07T18:31:11.239Z,6.53
2022-11-07T18:36:18.298Z,6.93
2022-11-07T18:41:23.615Z,5.97
2022-11-07T18:46:27.016Z,6.90
2022-11-07T18:51:31.893Z,7.63
2022-11-07T18:56:35.179Z,7.47
2022-11-07T19:01:38.847Z,8.10
2022-11-07T19:06:57.140Z,9.90
2022-11-07T19:12:01.889Z,10.60
2022-11-07T19:17:05.312Z,11.75
2022-11-07T19:22:12.852Z,10.70
2022-11-07T19:27:16.583Z,12.85
2022-11-07T19:32:20.090Z,13.17
2022-11-07T19:37:25.689Z,13.70
2022-11-07T19:42:29.229Z,13.50
2022-11-07T19:47:32.661Z,13.27
2022-11-07T19:52:37.324Z,13.03
2022-11-07T19:57:40.598Z,12.82
2022-11-07T20:02:44.989Z,15.85
2022-11-07T20:07:53.990Z,13.95
2022-11-07T20:12:58.736Z,15.32
2022-11-07T20:18:02.168Z,16.03
2022-11-07T20:23:06.851Z,17.70
2022-11-07T20:28:10.493Z,15.00
2022-11-07T20:33:13.864Z,17.60
2022-11-07T20:38:18.652Z,14.82
2022-11-07T20:43:22.417Z,13.50
2022-11-07T20:48:25.804Z,25.08
2022-11-07T20:53:30.600Z,22.02
2022-11-07T20:58:34.633Z,22.87
2022-11-07T21:03:37.943Z,14.60
2022-11-07T21:08:44.563Z,11.47
2022-11-07T21:13:52.767Z,10.63
2022-11-07T21:18:57.628Z,10.87
2022-11-07T21:24:03.259Z,11.40
2022-11-07T21:29:08.522Z,11.15
2022-11-07T21:34:12.959Z,10.77
2022-11-07T21:39:18.009Z,10.45
2022-11-07T21:44:21.523Z,12.18
2022-11-07T21:49:24.990Z,11.70
2022-11-07T21:54:29.877Z,11.67
2022-11-07T21:59:33.467Z,13.00
2022-11-07T22:04:37.461Z,11.63
2022-11-07T22:09:42.498Z,11.10
2022-11-07T22:14:49.081Z,10.70
2022-11-07T22:19:52.423Z,9.85
2022-11-07T22:24:57.043Z,13.38
2022-11-07T22:30:00.760Z,13.65
2022-11-07T22:35:08.946Z,11.77
2022-11-07T22:40:19.496Z,20.95
2022-11-07T22:45:23.487Z,32.25
2022-11-07T22:50:26.738Z,14.73
2022-11-07T22:55:36.193Z,10.88
2022-11-07T23:00:39.456Z,11.23
2022-11-07T23:05:42.805Z,10.95
2022-11-07T23:10:47.421Z,10.82
2022-11-07T23:15:50.775Z,9.80
2022-11-07T23:21:12.297Z,9.70
2022-11-07T23:26:19.245Z,10.57
2022-11-07T23:31:22.507Z,11.10
2022-11-07T23:36:25.843Z,11.70
2022-11-07T23:41:30.859Z,10.85
2022-11-07T23:46:51.507Z,11.35
2022-11-07T23:51:54.831Z,15.50
2022-11-07T23:56:59.499Z,15.83
